Time;durP1;ratioP1;P1;durP2;ratioP2;P2;SDS_P1;SDS_P2;PMS_P1;PMS_P2;Temp;Humidity;BMP_temperature;BMP_pressure;BME280_temperature;BME280_humidity;BME280_pressure;Samples;Min_cycle;Max_cycle;Signal;HPM_P1;HPM_P2
2024/01/24 00:11:57;;;;;;;41.95;30.17;;;;;;;21.29;49.71;100363.00;31151939;28;20642;-55
2024/01/24 00:27:00;;;;;;;36.17;26.38;;;;;;;21.24;49.50;100298.13;31258605;28;20500;-60
2024/01/24 00:42:03;;;;;;;33.70;24.38;;;;;;;21.20;49.98;100283.00;31226953;28;20229;-60
2024/01/24 00:57:06;;;;;;;31.15;24.45;;;;;;;21.16;50.01;100279.22;31195000;28;20715;-60
2024/01/24 01:12:10;;;;;;;26.75;23.85;;;;;;;21.11;50.51;100249.16;31254194;28;20224;-60
2024/01/24 01:27:13;;;;;;;28.05;23.27;;;;;;;21.09;50.12;100257.16;31189570;28;20555;-64
2024/01/24 01:42:16;;;;;;;23.50;20.85;;;;;;;21.04;50.37;100248.91;31128305;28;20483;-58
2024/01/24 01:57:19;;;;;;;20.73;18.48;;;;;;;21.00;50.43;100236.66;31126660;28;20221;-54
2024/01/24 02:12:22;;;;;;;22.27;16.95;;;;;;;20.97;50.65;100238.19;31126407;28;20687;-56
2024/01/24 02:27:25;;;;;;;17.70;15.35;;;;;;;20.94;51.00;100233.25;31126554;28;20488;-58
2024/01/24 02:42:28;;;;;;;16.55;13.65;;;;;;;20.92;51.24;100215.78;31140418;28;20238;-64
2024/01/24 02:57:31;;;;;;;15.80;13.40;;;;;;;20.91;51.18;100202.00;31259528;28;20764;-56
2024/01/24 03:12:34;;;;;;;13.02;10.70;;;;;;;21.26;50.60;100143.75;31205644;28;20224;-63
2024/01/24 03:27:38;;;;;;;12.30;10.38;;;;;;;21.63;49.34;100146.44;31268991;28;20200;-60
2024/01/24 03:42:42;;;;;;;10.50;8.82;;;;;;;21.82;49.27;100146.56;31318369;28;20232;-55
2024/01/24 03:57:45;;;;;;;8.20;7.00;;;;;;;21.93;48.75;100159.03;31140727;28;20312;-55
2024/01/24 04:12:48;;;;;;;8.05;5.75;;;;;;;21.98;48.28;100195.59;31056192;28;20236;-58
2024/01/24 04:27:51;;;;;;;5.70;4.97;;;;;;;22.03;48.42;100220.88;31072116;28;20201;-59
2024/01/24 04:42:54;;;;;;;5.03;4.40;;;;;;;22.06;48.70;100220.16;31199036;28;20323;-62
2024/01/24 04:57:57;;;;;;;73.10;50.78;;;;;;;22.33;49.14;100263.00;31228695;28;20576;-55
2024/01/24 05:13:00;;;;;;;57.80;41.15;;;;;;;22.65;48.10;100256.16;31243061;28;20228;-69
2024/01/24 05:28:04;;;;;;;55.30;38.63;;;;;;;22.80;47.42;100255.38;31232080;28;20200;-64
2024/01/24 05:43:07;;;;;;;124.93;82.53;;;;;;;22.77;48.17;100309.19;31253424;28;20299;-63
2024/01/24 05:58:11;;;;;;;129.18;85.38;;;;;;;22.84;49.51;100342.63;31234923;28;20229;-67
2024/01/24 06:13:14;;;;;;;124.85;81.90;;;;;;;22.82;49.33;100357.16;31187030;28;20687;-63
2024/01/24 06:28:17;;;;;;;115.60;76.18;;;;;;;22.75;48.93;100354.91;31179291;28;20297;-67
2024/01/24 06:43:20;;;;;;;96.82;63.33;;;;;;;22.77;48.99;100397.97;31248500;28;20233;-68
2024/01/24 06:58:23;;;;;;;81.82;55.47;;;;;;;22.89;48.04;100447.31;31227869;28;20638;-70
2024/01/24 07:13:26;;;;;;;69.97;48.30;;;;;;;22.92;48.00;100457.97;31204193;28;20639;-71
2024/01/24 07:28:29;;;;;;;65.07;43.80;;;;;;;22.75;48.26;100491.09;31215314;28;20210;-65
2024/01/24 07:43:33;;;;;;;57.22;38.35;;;;;;;22.67;48.70;100511.13;31145025;28;20244;-60
2024/01/24 07:58:36;;;;;;;49.80;34.30;;;;;;;22.53;48.91;100551.22;31102159;28;20279;-62
2024/01/24 08:13:39;;;;;;;41.97;28.67;;;;;;;22.36;48.55;100555.13;31099854;28;20236;-56
2024/01/24 08:28:42;;;;;;;39.13;27.40;;;;;;;22.26;48.97;100611.50;31091617;28;20205;-58
2024/01/24 08:43:45;;;;;;;36.65;25.48;;;;;;;22.18;49.04;100629.47;31172981;28;20231;-59
2024/01/24 08:58:48;;;;;;;29.90;21.33;;;;;;;22.13;49.60;100666.53;31209243;28;20224;-61
2024/01/24 09:13:52;;;;;;;27.63;19.50;;;;;;;22.06;49.62;100704.81;31250024;28;20232;-66
2024/01/24 09:28:55;;;;;;;24.45;17.27;;;;;;;21.97;49.44;100684.19;31216426;28;20534;-64
2024/01/24 09:44:03;;;;;;;22.55;15.45;;;;;;;21.92;49.64;100738.25;31183585;28;20224;-63
2024/01/24 09:59:07;;;;;;;22.40;14.52;;;;;;;21.86;50.06;100773.63;31219274;28;20220;-71
2024/01/24 10:14:12;;;;;;;20.05;12.95;;;;;;;21.76;49.94;100799.56;31216211;28;20676;-66
2024/01/24 10:29:15;;;;;;;16.02;10.82;;;;;;;21.70;50.19;100801.78;31232955;28;20239;-57
2024/01/24 10:44:19;;;;;;;17.00;10.63;;;;;;;21.66;49.98;100817.00;31234324;28;20278;-57
2024/01/24 10:59:24;;;;;;;15.15;9.85;;;;;;;21.61;50.10;100834.19;31221900;28;20311;-59
2024/01/24 11:14:31;;;;;;;12.75;8.75;;;;;;;21.60;50.40;100826.84;31233581;28;20255;-59
2024/01/24 11:29:35;;;;;;;11.70;7.38;;;;;;;21.58;50.22;100883.00;31206951;28;20303;-57
2024/01/24 11:44:39;;;;;;;10.63;7.00;;;;;;;21.54;50.30;100879.22;31215462;28;20228;-69
2024/01/24 11:59:42;;;;;;;9.93;7.03;;;;;;;21.51;50.49;100913.88;31228787;28;20252;-72
2024/01/24 12:14:45;;;;;;;10.80;5.65;;;;;;;21.48;50.38;100943.72;31229922;28;20561;-60
2024/01/24 12:29:51;;;;;;;10.43;6.13;;;;;;;21.46;50.41;100959.38;31243680;28;20192;-60
2024/01/24 12:44:55;;;;;;;9.07;5.63;;;;;;;21.44;50.50;100985.19;31214655;28;20290;-65
2024/01/24 12:59:58;;;;;;;8.38;4.90;;;;;;;21.43;50.47;101013.84;31215566;28;20221;-71
2024/01/24 13:15:03;;;;;;;5.95;4.15;;;;;;;21.40;50.89;101032.38;31222273;28;20230;-58
2024/01/24 13:30:07;;;;;;;4.68;3.33;;;;;;;21.37;50.47;101045.19;31206683;28;20192;-62
2024/01/24 13:45:10;;;;;;;6.20;3.65;;;;;;;21.36;50.47;101085.16;31221201;28;20228;-70
2024/01/24 14:00:15;;;;;;;5.80;3.22;;;;;;;22.02;49.41;101088.47;31207826;28;20216;-62
2024/01/24 14:15:18;;;;;;;4.68;2.88;;;;;;;22.38;48.06;101111.44;31228283;28;20231;-59
2024/01/24 14:30:21;;;;;;;5.20;2.75;;;;;;;22.62;47.35;101146.84;31222808;28;20196;-69
2024/01/24 14:45:27;;;;;;;4.03;2.38;;;;;;;22.67;47.43;101184.38;31213672;28;20283;-72
2024/01/24 15:00:29;;;;;;;3.70;2.17;;;;;;;22.67;46.72;101212.75;31227632;28;20254;-72
2024/01/24 15:15:33;;;;;;;3.42;2.03;;;;;;;22.64;46.93;101230.44;31251728;28;20232;-62
2024/01/24 15:30:36;;;;;;;2.70;1.83;;;;;;;22.67;46.71;101241.13;31212512;28;20565;-64
2024/01/24 15:45:39;;;;;;;3.40;1.85;;;;;;;22.88;45.66;101257.38;31235596;28;20259;-65
2024/01/24 16:00:42;;;;;;;4.53;1.88;;;;;;;22.92;45.66;101273.41;31241525;28;20232;-58
2024/01/24 16:15:45;;;;;;;69.38;41.10;;;;;;;22.97;45.59;101314.97;31241839;28;20311;-69
2024/01/24 16:30:51;;;;;;;85.10;51.42;;;;;;;22.83;44.06;101345.59;31237847;28;20205;-68
2024/01/24 16:45:55;;;;;;;106.07;75.67;;;;;;;23.40;44.45;101362.97;31223744;28;20549;-61
2024/01/24 17:01:03;;;;;;;162.35;104.05;;;;;;;23.14;45.39;101374.47;31226523;28;20224;-59
2024/01/24 17:16:06;;;;;;;240.07;148.57;;;;;;;23.19;45.65;101391.34;31218790;28;20246;-67
2024/01/24 17:31:09;;;;;;;257.30;159.55;;;;;;;23.17;46.18;101396.53;31228485;28;20228;-64
2024/01/24 17:46:26;;;;;;;292.02;187.73;;;;;;;23.22;46.40;101416.22;31216054;28;20230;-64
2024/01/24 18:01:37;;;;;;;285.65;184.38;;;;;;;23.33;45.78;101431.69;31217592;28;20252;-67
2024/01/24 18:16:41;;;;;;;313.73;210.23;;;;;;;23.33;45.90;101450.75;31213580;28;20536;-56
2024/01/24 18:31:44;;;;;;;264.65;168.07;;;;;;;23.23;46.01;101454.81;31221363;28;20493;-56
2024/01/24 18:46:48;;;;;;;296.88;197.68;;;;;;;23.20;45.66;101469.69;31226048;28;20380;-55
2024/01/24 19:01:51;;;;;;;358.67;286.23;;;;;;;23.55;45.03;101446.81;31245159;28;20466;-63
2024/01/24 19:31:57;;;;;;;273.70;185.98;;;;;;;23.46;45.71;101439.16;31680929;27;20874;-61
2024/01/24 19:47:00;;;;;;;328.05;232.27;;;;;;;23.49;45.69;101429.97;31560997;28;20225;-55
2024/01/24 20:02:09;;;;;;;278.33;191.73;;;;;;;23.47;45.79;101418.09;31552831;28;20638;-64
2024/01/24 20:17:12;;;;;;;237.60;159.77;;;;;;;23.44;45.92;101438.66;31596482;28;20230;-59
2024/01/24 20:32:15;;;;;;;269.75;189.00;;;;;;;23.26;46.22;101442.75;31570479;28;20282;-64
2024/01/24 20:47:18;;;;;;;222.27;148.52;;;;;;;23.13;46.32;101469.38;31502532;28;20622;-59
2024/01/24 21:02:21;;;;;;;198.27;128.25;;;;;;;23.08;46.71;101456.19;31496586;28;20229;-58
2024/01/24 21:17:24;;;;;;;166.70;129.43;;;;;;;23.19;46.62;101479.38;31478424;28;20448;-56
2024/01/24 21:32:27;;;;;;;151.07;97.18;;;;;;;23.01;49.96;101480.59;31478044;28;20606;-57
2024/01/24 21:47:30;;;;;;;212.52;137.90;;;;;;;22.92;50.87;101477.78;31514809;28;20233;-62
2024/01/24 22:02:52;;;;;;;204.13;146.07;;;;;;;22.98;51.20;101489.81;31519750;28;20485;-61
2024/01/24 22:17:55;;;;;;;149.00;101.07;;;;;;;22.67;51.76;101509.84;31507167;28;20238;-71
2024/01/24 22:32:58;;;;;;;183.75;123.13;;;;;;;22.55;51.84;101521.03;31530044;28;20202;-61
2024/01/24 22:48:01;;;;;;;175.15;119.03;;;;;;;22.48;52.70;101515.84;31503922;28;20230;-65
2024/01/24 23:03:05;;;;;;;146.15;99.13;;;;;;;22.36;52.09;101529.88;31590152;28;20649;-58
2024/01/24 23:18:08;;;;;;;124.10;85.20;;;;;;;22.30;51.97;101528.38;31557215;28;20241;-62
2024/01/24 23:33:11;;;;;;;111.07;72.85;;;;;;;22.24;52.23;101535.38;31587174;28;20209;-59
2024/01/24 23:48:14;;;;;;;93.43;63.35;;;;;;;22.21;52.19;101544.53;31498833;28;20222;-57
